Time;durP1;ratioP1;P1;durP2;ratioP2;P2;SDS_P1;SDS_P2;PMS_P1;PMS_P2;Temp;Humidity;BMP_temperature;BMP_pressure;BME280_temperature;BME280_humidity;BME280_pressure;Samples;Min_cycle;Max_cycle;Signal;HPM_P1;HPM_P2
2023/01/15 00:01:24;;;;;;;72.83;28.43;;;;;;;-0.91;95.12;101255.98;124655;1102;104175;-79
2023/01/15 00:03:58;;;;;;;78.17;29.60;;;;;;;-0.88;95.55;101256.27;124561;1102;104211;-81
2023/01/15 00:06:29;;;;;;;80.40;29.47;;;;;;;-0.84;95.45;101257.45;124647;1102;104188;-80
2023/01/15 00:09:01;;;;;;;79.43;29.50;;;;;;;-0.82;95.71;101268.83;124646;1102;101941;-81
2023/01/15 00:11:32;;;;;;;79.50;29.77;;;;;;;-0.81;95.21;101268.05;124617;1102;104255;-80
2023/01/15 00:14:03;;;;;;;80.47;29.57;;;;;;;-0.79;95.52;101274.27;124635;1102;104332;-81
2023/01/15 00:16:35;;;;;;;79.27;28.60;;;;;;;-0.78;95.56;101263.17;124633;1102;104211;-81
2023/01/15 00:19:09;;;;;;;80.63;30.77;;;;;;;-0.76;95.98;101269.40;124726;1102;101868;-81
2023/01/15 00:21:41;;;;;;;74.03;29.67;;;;;;;-0.75;95.15;101253.15;124705;1102;104341;-80
2023/01/15 00:29:51;;;;;;;70.27;29.90;;;;;;;-0.68;95.80;101244.34;124628;1102;104236;-81
2023/01/15 00:32:22;;;;;;;69.23;30.43;;;;;;;-0.66;95.43;101250.53;124454;1101;102489;-80
2023/01/15 00:34:53;;;;;;;71.63;31.53;;;;;;;-0.65;95.64;101249.78;124707;1102;104172;-81
2023/01/15 00:37:24;;;;;;;72.93;32.93;;;;;;;-0.65;95.02;101245.52;124606;1102;101826;-80
2023/01/15 00:39:56;;;;;;;73.43;31.90;;;;;;;-0.64;95.76;101242.19;124620;1102;102073;-81
2023/01/15 00:42:27;;;;;;;68.40;30.90;;;;;;;-0.67;95.58;101254.79;124692;1102;104197;-81
2023/01/15 00:45:04;;;;;;;70.77;32.20;;;;;;;-0.70;95.44;101251.00;124737;1101;104223;-80
2023/01/15 00:47:36;;;;;;;72.80;31.80;;;;;;;-0.71;95.70;101252.68;124712;1102;118647;-80
2023/01/15 00:50:11;;;;;;;68.93;31.33;;;;;;;-0.70;95.78;101254.51;124596;1103;104204;-81
2023/01/15 00:52:43;;;;;;;63.23;26.93;;;;;;;-0.69;95.57;101253.72;124720;1102;101836;-81
2023/01/15 00:55:14;;;;;;;62.05;28.55;;;;;;;-0.66;95.25;101263.42;124589;1103;104237;-81
2023/01/15 00:57:45;;;;;;;64.77;29.53;;;;;;;-0.65;95.06;101268.72;124632;1102;104189;-80
2023/01/15 01:00:17;;;;;;;59.07;28.80;;;;;;;-0.63;94.86;101261.13;124760;1102;102109;-80
2023/01/15 01:02:49;;;;;;;65.73;30.00;;;;;;;-0.63;95.00;101259.44;124810;1101;101922;-81
2023/01/15 01:05:20;;;;;;;64.50;29.30;;;;;;;-0.61;95.83;101257.94;124759;1101;104255;-80
2023/01/15 01:07:52;;;;;;;67.03;28.23;;;;;;;-0.58;95.15;101259.87;124514;1102;102045;-80
2023/01/15 01:10:23;;;;;;;62.30;28.50;;;;;;;-0.59;95.01;101255.50;124653;1102;102009;-80
2023/01/15 01:12:55;;;;;;;59.33;28.30;;;;;;;-0.62;95.56;101256.11;124614;1102;104224;-81
2023/01/15 01:15:26;;;;;;;63.03;28.23;;;;;;;-0.62;95.38;101255.22;124669;1102;102025;-80
2023/01/15 01:17:58;;;;;;;63.67;29.00;;;;;;;-0.62;95.40;101247.48;124798;1102;102128;-80
2023/01/15 01:20:29;;;;;;;59.83;28.33;;;;;;;-0.62;95.52;101244.91;124526;1102;104159;-80
2023/01/15 01:23:00;;;;;;;57.80;27.97;;;;;;;-0.63;94.95;101243.08;124953;1102;102203;-80
2023/01/15 01:25:32;;;;;;;61.43;28.50;;;;;;;-0.63;96.01;101237.92;124759;1102;101859;-80
2023/01/15 01:28:03;;;;;;;59.17;27.77;;;;;;;-0.63;95.78;101237.92;124522;1105;104261;-80
2023/01/15 01:30:34;;;;;;;62.00;30.43;;;;;;;-0.65;95.58;101235.20;124606;1105;104194;-81
2023/01/15 01:33:05;;;;;;;66.40;30.73;;;;;;;-0.63;96.14;101222.45;124719;1105;104188;-81
2023/01/15 01:35:37;;;;;;;69.73;30.23;;;;;;;-0.63;95.13;101217.30;124633;1105;104321;-81
2023/01/15 01:38:08;;;;;;;65.10;30.00;;;;;;;-0.65;95.10;101218.84;124623;1103;104284;-80
2023/01/15 01:40:41;;;;;;;59.50;27.90;;;;;;;-0.68;95.17;101221.14;124785;1102;102156;-81
2023/01/15 01:43:19;;;;;;;62.73;29.67;;;;;;;-0.70;95.28;101210.69;124638;1102;104278;-80
2023/01/15 01:45:51;;;;;;;62.13;27.20;;;;;;;-0.71;95.52;101201.13;124653;1102;104182;-80
2023/01/15 01:48:29;;;;;;;66.17;27.50;;;;;;;-0.73;95.67;101203.57;124823;1102;104179;-81
2023/01/15 01:51:01;;;;;;;61.73;27.40;;;;;;;-0.75;95.68;101205.11;124690;1102;104332;-81
2023/01/15 01:53:33;;;;;;;58.63;26.33;;;;;;;-0.77;95.49;101210.88;124524;1105;104207;-80
2023/01/15 01:56:07;;;;;;;57.83;27.43;;;;;;;-0.79;94.94;101200.43;124624;1102;101833;-80
2023/01/15 01:58:39;;;;;;;55.88;25.45;;;;;;;-0.80;95.32;101200.29;124614;1102;102156;-81
2023/01/15 02:01:10;;;;;;;56.17;25.00;;;;;;;-0.81;95.20;101199.39;124778;1101;104160;-81
2023/01/15 02:03:42;;;;;;;53.20;23.90;;;;;;;-0.81;95.38;101201.97;124817;1102;101936;-80
2023/01/15 02:06:15;;;;;;;50.57;24.03;;;;;;;-0.84;95.10;101201.69;124583;1102;104875;-80
2023/01/15 02:08:46;;;;;;;51.80;22.80;;;;;;;-0.85;95.04;101199.86;124653;1102;104329;-80
2023/01/15 02:11:20;;;;;;;53.10;24.00;;;;;;;-0.86;94.82;101203.19;124636;1102;104226;-81
2023/01/15 02:13:58;;;;;;;56.33;25.57;;;;;;;-0.84;95.87;101211.99;124621;1105;102007;-80
2023/01/15 02:16:36;;;;;;;57.23;25.40;;;;;;;-0.83;95.81;101216.36;124701;1102;103399;-81
2023/01/15 02:19:22;;;;;;;54.27;25.77;;;;;;;-0.81;95.29;101212.28;124646;1101;101897;-81
2023/01/15 02:22:02;;;;;;;58.67;26.40;;;;;;;-0.80;95.47;101203.76;124610;1102;104642;-81
2023/01/15 02:24:44;;;;;;;56.93;25.63;;;;;;;-0.78;95.21;101197.09;124564;1102;102200;-80
2023/01/15 02:27:19;;;;;;;50.43;21.60;;;;;;;-0.76;95.53;101197.23;124678;1102;102002;-80
2023/01/15 02:29:58;;;;;;;57.97;24.10;;;;;;;-0.79;94.82;101199.53;124632;1102;117743;-81
2023/01/15 02:32:35;;;;;;;58.20;24.87;;;;;;;-0.80;95.77;101195.13;124632;1105;101909;-81
2023/01/15 02:35:13;;;;;;;53.80;24.53;;;;;;;-0.80;95.48;101196.03;124577;1105;101858;-81
2023/01/15 02:37:50;;;;;;;56.20;24.30;;;;;;;-0.79;95.53;101187.55;124592;1102;104198;-80
2023/01/15 02:40:24;;;;;;;55.30;25.23;;;;;;;-0.77;95.21;101197.99;124577;1105;102052;-80
2023/01/15 02:42:57;;;;;;;58.70;25.73;;;;;;;-0.76;95.31;101195.55;124513;1103;104306;-80
2023/01/15 02:45:33;;;;;;;58.37;26.17;;;;;;;-0.75;94.98;101191.30;124617;1103;104233;-80
2023/01/15 02:48:12;;;;;;;48.37;23.90;;;;;;;-0.75;95.88;101188.72;124649;1105;104057;-80
2023/01/15 02:50:48;;;;;;;52.67;25.93;;;;;;;-0.75;95.56;101186.14;124559;1102;102051;-80
2023/01/15 02:53:26;;;;;;;54.73;25.57;;;;;;;-0.75;95.67;101180.98;124605;1105;102553;-80
2023/01/15 02:56:03;;;;;;;50.63;24.10;;;;;;;-0.77;95.69;101175.69;124594;1105;104313;-80
2023/01/15 02:58:40;;;;;;;50.13;23.53;;;;;;;-0.77;94.77;101182.53;124526;1102;102440;-81
2023/01/15 03:01:13;;;;;;;;;;;;;;;-0.81;95.30;101180.42;124738;1102;102208;-81
2023/01/15 03:03:52;;;;;;;44.90;20.70;;;;;;;-0.83;95.06;101180.28;124612;1102;104344;-80
2023/01/15 03:06:35;;;;;;;41.27;20.27;;;;;;;-0.86;94.74;101191.99;124588;1102;101849;-81
2023/01/15 03:09:09;;;;;;;44.83;20.20;;;;;;;-0.89;95.62;101192.59;124603;1102;102096;-80
2023/01/15 03:11:49;;;;;;;45.87;21.57;;;;;;;-0.87;94.95;101191.09;124589;1103;104319;-80
2023/01/15 03:14:28;;;;;;;43.57;20.83;;;;;;;-0.88;95.64;101186.69;124571;1102;102058;-81
2023/01/15 03:17:05;;;;;;;48.10;22.27;;;;;;;-0.86;95.63;101192.88;124534;1103;104176;-80
2023/01/15 03:19:43;;;;;;;41.57;19.93;;;;;;;-0.83;95.16;101197.42;124583;1102;104274;-80
2023/01/15 03:22:23;;;;;;;39.87;19.07;;;;;;;-0.82;94.93;101201.83;124650;1105;104350;-80
2023/01/15 03:25:00;;;;;;;40.60;18.87;;;;;;;-0.84;94.94;101206.84;124697;1102;104197;-81
2023/01/15 03:27:32;;;;;;;40.43;17.93;;;;;;;-0.86;95.38;101216.08;124696;1102;104102;-80
2023/01/15 03:30:09;;;;;;;37.50;16.80;;;;;;;-0.89;95.10;101207.16;124641;1102;104224;-80
2023/01/15 03:32:41;;;;;;;41.63;18.13;;;;;;;-0.89;94.76;101199.44;124656;1105;101874;-80
2023/01/15 03:35:44;;;;;;;39.70;18.00;;;;;;;-0.92;94.71;101193.25;124625;1102;104239;-80
2023/01/15 03:38:20;;;;;;;41.93;18.40;;;;;;;-0.93;95.45;101185.38;124625;1102;104179;-80
2023/01/15 03:40:58;;;;;;;38.53;18.63;;;;;;;-0.95;95.57;101187.81;124631;1102;102294;-80
2023/01/15 03:43:41;;;;;;;38.27;17.33;;;;;;;-0.97;95.03;101180.69;124620;1102;102130;-80
2023/01/15 03:46:49;;;;;;;42.87;18.73;;;;;;;-0.97;95.13;101188.42;124656;1105;101870;-80
2023/01/15 03:49:33;;;;;;;42.70;19.77;;;;;;;-0.94;95.10;101194.75;124597;1105;104246;-80
2023/01/15 03:52:11;;;;;;;43.70;19.43;;;;;;;-0.91;95.65;101183.84;124546;1105;101888;-80
2023/01/15 03:54:50;;;;;;;46.43;19.83;;;;;;;-0.91;95.50;101181.26;124556;1105;102306;-80
2023/01/15 03:57:30;;;;;;;45.20;18.50;;;;;;;-0.92;95.59;101188.09;124700;1105;104283;-81
2023/01/15 04:00:07;;;;;;;45.37;18.43;;;;;;;-0.91;95.08;101181.26;124535;1105;102394;-80
2023/01/15 04:02:48;;;;;;;44.63;18.30;;;;;;;-0.87;95.86;101192.74;124724;1102;102057;-80
2023/01/15 04:05:22;;;;;;;40.60;16.33;;;;;;;-0.88;95.40;101197.00;124600;1102;104195;-81
2023/01/15 04:07:55;;;;;;;46.37;18.47;;;;;;;-0.90;95.71;101193.39;124689;1102;104105;-79
2023/01/15 04:10:26;;;;;;;41.67;17.47;;;;;;;-0.89;94.96;101192.59;124586;1102;104178;-81
2023/01/15 04:12:58;;;;;;;42.30;16.80;;;;;;;-0.89;95.51;101190.02;124580;1102;102220;-81
2023/01/15 04:15:29;;;;;;;40.67;16.23;;;;;;;-0.85;95.17;101198.97;124624;1102;104204;-81
2023/01/15 04:18:00;;;;;;;39.63;15.93;;;;;;;-0.83;95.05;101198.32;124669;1102;104287;-81
2023/01/15 04:20:34;;;;;;;39.47;17.50;;;;;;;-0.82;94.91;101197.56;124726;1102;104195;-80
2023/01/15 04:23:05;;;;;;;37.13;15.37;;;;;;;-0.82;95.58;101200.14;124865;1102;103266;-81
2023/01/15 04:25:36;;;;;;;41.43;17.93;;;;;;;-0.84;95.11;101199.11;124725;1102;104223;-81
2023/01/15 04:28:08;;;;;;;37.87;16.57;;;;;;;-0.82;95.28;101194.09;124731;1102;104262;-81
2023/01/15 04:30:42;;;;;;;40.97;17.70;;;;;;;-0.81;95.99;101191.66;124707;1102;104251;-81
2023/01/15 04:33:13;;;;;;;44.50;18.77;;;;;;;-0.79;95.53;101192.70;124723;1102;104261;-80
2023/01/15 04:35:46;;;;;;;48.87;19.07;;;;;;;-0.77;95.14;101190.27;124582;1102;104248;-80
2023/01/15 04:38:17;;;;;;;41.37;17.13;;;;;;;-0.75;96.07;101189.65;124703;1102;102022;-79
2023/01/15 04:46:25;;;;;;;34.00;14.43;;;;;;;-0.78;94.84;101191.94;124567;1102;104318;-81
2023/01/15 04:48:56;;;;;;;33.23;13.90;;;;;;;-0.82;94.98;101186.37;124671;1102;102288;-81
2023/01/15 04:51:27;;;;;;;35.45;14.55;;;;;;;-0.87;94.95;101180.78;124616;1102;104353;-80
2023/01/15 04:54:00;;;;;;;39.07;15.53;;;;;;;-0.89;94.83;101182.30;124654;1105;102231;-79
2023/01/15 04:56:31;;;;;;;36.73;14.33;;;;;;;-0.88;95.32;101178.97;124541;1102;102217;-79
2023/01/15 04:59:03;;;;;;;36.43;13.73;;;;;;;-0.88;95.84;101185.80;124601;1102;102636;-81
2023/01/15 05:01:35;;;;;;;32.63;13.93;;;;;;;-0.86;95.06;101186.84;124584;1102;104229;-80
2023/01/15 05:04:07;;;;;;;32.53;12.07;;;;;;;-0.88;95.47;101184.12;124627;1102;102326;-81
2023/01/15 05:06:38;;;;;;;31.53;13.43;;;;;;;-0.88;95.47;101190.95;124646;1102;102287;-81
2023/01/15 05:09:09;;;;;;;30.47;13.00;;;;;;;-0.90;94.88;101190.81;124547;1102;102428;-81
2023/01/15 05:11:41;;;;;;;31.37;11.53;;;;;;;-0.90;95.63;101198.55;124573;1102;104060;-81
2023/01/15 05:14:12;;;;;;;30.07;12.07;;;;;;;-0.90;95.90;101201.12;124700;1102;102091;-81
2023/01/15 05:16:43;;;;;;;30.47;11.73;;;;;;;-0.93;95.75;101190.53;124739;1102;104204;-80
2023/01/15 05:19:15;;;;;;;31.40;12.87;;;;;;;-0.95;96.05;101192.03;124592;1102;102383;-80
2023/01/15 05:21:46;;;;;;;29.13;11.13;;;;;;;-0.94;95.54;101188.70;124630;1102;102568;-79
2023/01/15 05:24:19;;;;;;;29.10;11.87;;;;;;;-0.96;95.28;101185.98;124705;1102;104092;-80
2023/01/15 05:26:50;;;;;;;28.57;11.67;;;;;;;-0.97;95.86;101188.42;124695;1102;104181;-81
2023/01/15 05:29:21;;;;;;;30.90;11.53;;;;;;;-0.98;95.33;101189.17;124698;1102;102090;-80
2023/01/15 05:31:53;;;;;;;32.80;12.20;;;;;;;-0.96;95.32;101185.09;124753;1102;104185;-80
2023/01/15 05:34:24;;;;;;;30.97;12.03;;;;;;;-0.94;95.36;101189.59;124726;1102;104192;-80
2023/01/15 05:36:55;;;;;;;32.63;12.43;;;;;;;-0.93;95.47;101190.53;124784;1102;101817;-80
2023/01/15 05:39:26;;;;;;;30.60;12.37;;;;;;;-0.91;95.76;101186.41;124773;1102;102044;-81
2023/01/15 05:41:58;;;;;;;33.50;12.77;;;;;;;-0.86;95.52;101181.69;124712;1102;103434;-80
2023/01/15 05:44:31;;;;;;;32.87;12.30;;;;;;;-0.85;95.19;101188.66;124711;1102;104316;-80
2023/01/15 05:47:06;;;;;;;23.62;9.30;;;;;;;-0.84;95.81;101193.95;124619;1102;104179;-81
2023/01/15 05:49:37;;;;;;;30.33;12.10;;;;;;;-0.83;95.17;101193.17;124642;1105;102112;-80
2023/01/15 05:52:09;;;;;;;30.57;11.83;;;;;;;-0.83;95.62;101200.89;124576;1102;101839;-80
2023/01/15 05:54:40;;;;;;;32.55;11.95;;;;;;;-0.82;95.77;101201.83;124764;1102;103673;-80
2023/01/15 05:57:13;;;;;;;30.70;11.80;;;;;;;-0.82;95.58;101202.72;124711;1102;102322;-81
2023/01/15 05:59:44;;;;;;;30.00;12.53;;;;;;;-0.79;96.11;101205.58;124615;1102;104278;-80
2023/01/15 06:02:15;;;;;;;32.93;12.57;;;;;;;-0.77;96.01;101200.57;124687;1102;101950;-81
2023/01/15 06:04:47;;;;;;;34.80;13.37;;;;;;;-0.77;95.12;101195.41;124657;1102;104278;-81
2023/01/15 06:07:18;;;;;;;30.90;12.30;;;;;;;-0.79;95.23;101203.00;124675;1105;104278;-78
2023/01/15 06:09:49;;;;;;;31.27;11.70;;;;;;;-0.81;95.01;101207.13;124742;1102;104518;-80
2023/01/15 06:12:20;;;;;;;32.87;12.93;;;;;;;-0.84;95.41;101211.99;124452;1102;104235;-80
2023/01/15 06:14:51;;;;;;;30.47;11.73;;;;;;;-0.86;94.77;101208.34;124636;1102;104185;-80
2023/01/15 06:17:23;;;;;;;30.33;11.57;;;;;;;-0.88;94.95;101207.30;124699;1102;104178;-80
2023/01/15 06:19:54;;;;;;;34.97;12.57;;;;;;;-0.88;95.33;101206.41;124672;1102;104178;-80
2023/01/15 06:22:25;;;;;;;30.47;11.43;;;;;;;-0.87;95.51;101203.05;124612;1102;104210;-80
2023/01/15 06:24:56;;;;;;;31.43;11.67;;;;;;;-0.86;95.95;101207.45;124574;1102;104370;-80
2023/01/15 06:27:28;;;;;;;34.13;12.43;;;;;;;-0.85;95.78;101209.27;124638;1102;104137;-81
2023/01/15 06:29:59;;;;;;;32.33;12.07;;;;;;;-0.82;95.80;101213.03;124687;1102;104213;-81
2023/01/15 06:32:35;;;;;;;31.37;11.67;;;;;;;-0.80;95.63;101208.02;124594;1102;102032;-80
2023/01/15 06:35:10;;;;;;;31.17;11.37;;;;;;;-0.80;96.23;101206.34;124682;1102;102021;-81
2023/01/15 06:37:41;;;;;;;32.30;11.50;;;;;;;-0.79;95.66;101203.00;124622;1102;102361;-81
2023/01/15 06:40:13;;;;;;;32.80;11.83;;;;;;;-0.79;96.04;101208.16;124840;1102;101881;-80
2023/01/15 06:48:28;;;;;;;34.33;13.17;;;;;;;-0.82;95.27;101199.25;124641;1102;102125;-80
2023/01/15 06:51:00;;;;;;;34.20;13.50;;;;;;;-0.81;96.08;101196.81;124589;1102;101912;-79
2023/01/15 06:53:31;;;;;;;37.53;13.23;;;;;;;-0.81;96.00;101201.97;124782;1102;102167;-80
2023/01/15 06:56:02;;;;;;;33.80;11.90;;;;;;;-0.82;95.59;101194.09;124738;1102;102217;-81
2023/01/15 06:58:33;;;;;;;35.27;12.73;;;;;;;-0.81;96.09;101201.04;124687;1102;101913;-83
2023/01/15 07:01:11;;;;;;;34.87;11.93;;;;;;;-0.81;95.56;101199.39;124873;1102;101891;-80
2023/01/15 07:03:42;;;;;;;30.73;11.00;;;;;;;-0.80;96.52;101197.70;124682;1102;102584;-80
2023/01/15 07:06:14;;;;;;;28.70;10.43;;;;;;;-0.77;95.80;101198.88;124635;1102;104198;-80
2023/01/15 07:08:46;;;;;;;32.37;11.27;;;;;;;-0.78;96.41;101191.94;124684;1102;104189;-81
2023/01/15 07:11:17;;;;;;;35.60;12.43;;;;;;;-0.76;95.93;101200.71;124667;1102;104208;-81
2023/01/15 07:13:49;;;;;;;33.00;11.33;;;;;;;-0.73;96.14;101197.52;124700;1102;104179;-82
2023/01/15 07:16:27;;;;;;;31.77;11.00;;;;;;;-0.71;96.15;101190.83;124613;1102;101971;-81
2023/01/15 07:18:59;;;;;;;28.23;10.23;;;;;;;-0.70;96.30;101183.98;124634;1102;104272;-82
2023/01/15 07:21:31;;;;;;;30.60;10.77;;;;;;;-0.74;95.78;101181.12;124801;1102;104203;-82
2023/01/15 07:24:02;;;;;;;27.80;9.53;;;;;;;-0.75;96.17;101180.98;124720;1102;102083;-79
2023/01/15 07:26:34;;;;;;;29.43;9.97;;;;;;;-0.76;96.53;101185.25;124720;1102;104185;-80
2023/01/15 07:29:05;;;;;;;28.23;10.43;;;;;;;-0.78;96.11;101181.63;124616;1102;104182;-80
2023/01/15 07:31:37;;;;;;;27.97;10.00;;;;;;;-0.77;95.74;101188.58;124645;1102;104175;-80
2023/01/15 07:34:08;;;;;;;27.67;10.10;;;;;;;-0.74;95.39;101187.97;124618;1102;102096;-80
2023/01/15 07:36:40;;;;;;;26.83;9.67;;;;;;;-0.70;96.35;101186.56;124618;1102;102032;-80
2023/01/15 07:39:12;;;;;;;28.90;10.03;;;;;;;-0.65;95.83;101187.91;124693;1102;102352;-81
2023/01/15 07:50:16;;;;;;;28.20;10.03;;;;;;;-0.56;96.52;101191.33;124632;1102;102053;-80
2023/01/15 07:52:48;;;;;;;30.23;11.07;;;;;;;-0.53;95.88;101183.88;124725;1102;101991;-80
2023/01/15 07:55:20;;;;;;;27.73;10.43;;;;;;;-0.50;95.59;101186.70;124657;1102;104230;-80
2023/01/15 07:57:52;;;;;;;30.00;10.93;;;;;;;-0.52;96.06;101183.09;124685;1102;104248;-80
2023/01/15 08:00:25;;;;;;;28.07;9.77;;;;;;;-0.51;95.95;101181.41;124762;1102;104188;-80
2023/01/15 08:02:56;;;;;;;31.50;11.53;;;;;;;-0.50;96.51;101183.23;124708;1102;104214;-80
2023/01/15 08:05:27;;;;;;;26.50;10.43;;;;;;;-0.50;95.91;101189.28;124614;1102;104181;-80
2023/01/15 08:07:58;;;;;;;26.53;10.23;;;;;;;-0.49;96.12;101179.89;124684;1102;101961;-82
2023/01/15 08:10:29;;;;;;;24.03;9.10;;;;;;;-0.50;95.94;101183.23;124645;1102;104236;-80
2023/01/15 08:15:50;;;;;;;23.30;9.00;;;;;;;-0.53;95.77;101180.37;124670;1102;104099;-80
2023/01/15 08:18:21;;;;;;;23.53;9.03;;;;;;;-0.53;95.88;101182.95;124653;1102;102454;-79
2023/01/15 08:20:52;;;;;;;23.03;8.10;;;;;;;-0.52;95.46;101177.04;124634;1102;104757;-80
2023/01/15 08:23:24;;;;;;;20.80;7.90;;;;;;;-0.56;95.95;101178.44;124636;1102;104191;-81
2023/01/15 08:25:55;;;;;;;21.80;7.70;;;;;;;-0.60;95.59;101179.81;124719;1102;104204;-82
2023/01/15 08:28:26;;;;;;;20.30;7.53;;;;;;;-0.62;95.55;101183.94;124647;1102;102049;-81
2023/01/15 08:30:57;;;;;;;19.35;7.00;;;;;;;-0.62;95.44;101178.78;124725;1102;102568;-80
2023/01/15 08:33:29;;;;;;;19.17;7.10;;;;;;;-0.63;95.67;101182.11;124696;1102;102239;-81
2023/01/15 08:36:00;;;;;;;21.10;7.77;;;;;;;-0.60;95.88;101176.34;124693;1102;101810;-81
2023/01/15 08:38:31;;;;;;;20.47;7.37;;;;;;;-0.56;95.92;101173.28;124761;1102;104255;-80
2023/01/15 08:41:02;;;;;;;19.40;7.37;;;;;;;-0.52;95.97;101174.45;124789;1102;104179;-81
2023/01/15 08:43:34;;;;;;;20.73;7.43;;;;;;;-0.48;95.75;101174.88;124738;1102;104207;-80
2023/01/15 08:46:07;;;;;;;19.27;6.80;;;;;;;-0.45;96.13;101175.16;124650;1102;104252;-80
2023/01/15 08:48:38;;;;;;;20.17;7.20;;;;;;;-0.42;95.71;101166.77;124674;1102;104182;-80
2023/01/15 08:51:11;;;;;;;19.37;7.27;;;;;;;-0.41;96.01;101166.91;124680;1101;102773;-80
2023/01/15 08:53:42;;;;;;;19.17;7.23;;;;;;;-0.36;95.47;101169.90;124734;1102;104214;-80
2023/01/15 08:56:16;;;;;;;19.13;7.27;;;;;;;-0.29;95.81;101166.22;124529;1102;101911;-80
2023/01/15 08:58:47;;;;;;;20.50;8.15;;;;;;;-0.27;95.98;101156.94;124642;1102;104192;-80
2023/01/15 09:01:18;;;;;;;20.60;7.67;;;;;;;-0.25;95.88;101146.00;124647;1102;104270;-79
2023/01/15 09:03:50;;;;;;;21.30;8.00;;;;;;;-0.25;95.81;101157.97;124790;1102;102279;-83
2023/01/15 09:06:21;;;;;;;20.60;7.50;;;;;;;-0.27;96.46;101152.67;124729;1102;102026;-80
2023/01/15 09:08:52;;;;;;;21.47;7.87;;;;;;;-0.28;96.20;101153.46;124650;1105;104188;-79
2023/01/15 09:11:23;;;;;;;20.23;7.17;;;;;;;-0.26;95.73;101154.49;124591;1105;101877;-79
2023/01/15 09:13:55;;;;;;;21.97;8.07;;;;;;;-0.24;96.30;101146.89;124543;1105;102067;-80
2023/01/15 09:16:26;;;;;;;23.53;8.93;;;;;;;-0.20;95.63;101149.88;124605;1101;102344;-79
2023/01/15 09:18:58;;;;;;;24.63;9.13;;;;;;;-0.16;96.09;101153.62;124699;1101;104203;-80
2023/01/15 09:21:29;;;;;;;22.23;8.00;;;;;;;-0.16;96.18;101148.47;124863;1102;104197;-79
2023/01/15 09:24:01;;;;;;;22.83;8.40;;;;;;;-0.21;95.73;101145.48;124760;1102;104203;-81
2023/01/15 09:26:35;;;;;;;23.93;8.17;;;;;;;-0.22;95.79;101141.11;124705;1102;102319;-79
2023/01/15 09:29:07;;;;;;;21.93;8.03;;;;;;;-0.22;95.50;101133.38;124649;1102;101892;-79
2023/01/15 09:31:38;;;;;;;22.87;8.53;;;;;;;-0.20;96.02;101130.93;124619;1102;101811;-80
2023/01/15 09:34:10;;;;;;;19.73;7.63;;;;;;;-0.20;95.53;101136.09;124664;1102;101943;-79
2023/01/15 09:36:41;;;;;;;20.20;7.10;;;;;;;-0.17;95.37;101123.47;124665;1103;104226;-81
2023/01/15 09:39:12;;;;;;;22.67;8.73;;;;;;;-0.18;95.63;101121.64;124625;1102;101941;-80
2023/01/15 09:42:08;;;;;;;20.17;7.23;;;;;;;-0.14;96.24;101117.65;124650;1102;101942;-79
2023/01/15 09:44:50;;;;;;;18.90;6.93;;;;;;;-0.09;96.04;101117.30;124754;1102;102013;-79
2023/01/15 09:47:26;;;;;;;19.43;7.37;;;;;;;-0.05;96.15;101109.06;124651;1102;104364;-80
2023/01/15 09:50:15;;;;;;;20.83;7.90;;;;;;;-0.02;95.35;101109.34;124559;1102;104248;-79
2023/01/15 09:53:05;;;;;;;18.45;7.25;;;;;;;-0.01;95.66;101100.80;124736;1102;104192;-79
2023/01/15 09:55:44;;;;;;;17.40;6.73;;;;;;;-0.05;95.51;101106.48;124675;1102;102015;-81
2023/01/15 09:58:17;;;;;;;21.70;7.63;;;;;;;-0.06;95.62;101099.50;124680;1102;102099;-81
2023/01/15 10:00:51;;;;;;;18.53;7.57;;;;;;;-0.07;95.04;101089.05;124611;1102;104339;-80
2023/01/15 10:03:29;;;;;;;17.77;6.97;;;;;;;-0.05;95.74;101091.00;124623;1102;104175;-80
2023/01/15 10:06:09;;;;;;;18.43;7.27;;;;;;;0.01;95.24;101087.14;124775;1102;104185;-80
2023/01/15 10:08:45;;;;;;;20.47;8.30;;;;;;;0.03;95.39;101075.27;124595;1105;112067;-80
2023/01/15 10:14:39;;;;;;;21.00;8.00;;;;;;;0.04;95.95;101062.50;124452;1102;104262;-79
2023/01/15 10:17:25;;;;;;;20.60;8.20;;;;;;;0.04;95.27;101049.59;124559;1102;102114;-79
2023/01/15 10:19:57;;;;;;;23.30;7.47;;;;;;;-0.01;95.04;101049.20;124710;1102;104201;-80
2023/01/15 10:22:45;;;;;;;20.10;7.70;;;;;;;-0.01;95.65;101050.88;124770;1102;104237;-81
2023/01/15 10:25:22;;;;;;;19.13;6.97;;;;;;;-0.02;95.74;101042.25;124659;1102;102103;-79
2023/01/15 10:27:57;;;;;;;19.97;7.60;;;;;;;0.02;95.64;101042.48;124574;1102;102791;-79
2023/01/15 10:30:37;;;;;;;18.80;6.73;;;;;;;0.07;95.50;101038.64;124473;1102;102091;-79
2023/01/15 10:33:29;;;;;;;21.47;7.60;;;;;;;0.13;95.48;101034.91;124575;1102;104283;-79
2023/01/15 10:36:05;;;;;;;20.07;7.90;;;;;;;0.19;95.82;101026.80;124602;1102;104217;-82
2023/01/15 10:38:46;;;;;;;25.70;9.23;;;;;;;0.18;95.48;101022.39;124686;1102;102054;-80
2023/01/15 10:41:31;;;;;;;20.80;8.20;;;;;;;0.17;95.53;101028.32;124662;1102;101947;-79
2023/01/15 10:44:11;;;;;;;24.20;8.83;;;;;;;0.16;94.93;101023.95;124611;1102;104358;-80
2023/01/15 10:46:44;;;;;;;23.50;8.25;;;;;;;0.15;95.36;101019.55;124771;1102;102105;-80
2023/01/15 10:49:18;;;;;;;22.90;8.85;;;;;;;0.13;95.18;101015.95;124696;1102;104212;-80
2023/01/15 10:51:50;;;;;;;;;;;;;;;0.13;94.79;101011.67;124593;1105;104166;-79
2023/01/15 10:54:30;;;;;;;20.60;7.87;;;;;;;0.15;95.27;101014.39;124635;1101;104188;-81
2023/01/15 10:57:10;;;;;;;23.50;9.67;;;;;;;0.15;95.70;101004.95;124579;1102;102063;-79
2023/01/15 10:59:47;;;;;;;23.30;9.27;;;;;;;0.18;95.47;101004.33;124569;1105;102103;-82
2023/01/15 11:02:30;;;;;;;23.27;8.67;;;;;;;0.15;95.40;101004.06;124583;1102;102169;-80
2023/01/15 11:05:03;;;;;;;22.13;7.87;;;;;;;0.15;95.20;101001.48;124763;1102;104211;-79
2023/01/15 11:07:39;;;;;;;21.40;8.30;;;;;;;0.18;95.73;100994.00;124647;1102;101951;-79
2023/01/15 11:10:14;;;;;;;25.73;9.10;;;;;;;0.23;95.86;100987.55;124706;1101;107045;-80
2023/01/15 11:21:30;;;;;;;26.63;10.23;;;;;;;0.15;94.96;100978.26;124735;1102;104256;-80
2023/01/15 11:24:02;;;;;;;25.00;8.70;;;;;;;0.14;95.42;100966.12;124668;1102;102029;-82
2023/01/15 11:26:34;;;;;;;22.83;8.70;;;;;;;0.16;95.52;100962.01;124864;1102;104255;-79
2023/01/15 11:29:19;;;;;;;25.83;9.63;;;;;;;0.22;95.28;100962.53;124595;1102;104284;-79
2023/01/15 11:31:51;;;;;;;22.73;8.30;;;;;;;0.23;95.09;100953.98;124719;1102;104182;-80
2023/01/15 11:34:23;;;;;;;22.57;9.00;;;;;;;0.24;95.11;100947.17;124687;1102;104204;-81
2023/01/15 11:37:05;;;;;;;23.87;8.73;;;;;;;0.24;94.88;100947.17;124639;1102;102015;-79
2023/01/15 11:39:36;;;;;;;21.27;7.80;;;;;;;0.25;95.52;100942.14;124671;1102;104201;-83
2023/01/15 11:51:21;;;;;;;24.87;8.70;;;;;;;0.21;95.64;100936.59;124512;1105;107713;-81
2023/01/15 11:54:04;;;;;;;24.37;8.73;;;;;;;0.17;95.11;100935.41;124622;1104;104233;-80
2023/01/15 11:56:36;;;;;;;21.33;8.93;;;;;;;0.20;95.66;100934.77;124610;1102;102189;-80
2023/01/15 11:59:16;;;;;;;22.23;9.50;;;;;;;0.22;95.53;100943.53;124768;1102;104347;-78
2023/01/15 12:01:58;;;;;;;24.27;9.93;;;;;;;0.23;95.16;100948.83;124570;1102;117881;-79
2023/01/15 12:04:33;;;;;;;25.23;9.50;;;;;;;0.26;95.60;100945.61;124621;1102;104249;-82
2023/01/15 12:07:06;;;;;;;22.83;9.33;;;;;;;0.27;95.61;100935.41;124707;1102;104197;-81
2023/01/15 12:09:53;;;;;;;22.70;8.63;;;;;;;0.25;94.92;100926.65;124611;1102;102001;-81
2023/01/15 12:12:34;;;;;;;21.13;8.30;;;;;;;0.26;95.37;100930.12;124756;1102;102032;-82
2023/01/15 12:15:29;;;;;;;23.17;8.57;;;;;;;0.23;94.85;100923.02;124776;1102;104201;-82
2023/01/15 12:18:23;;;;;;;22.65;8.55;;;;;;;0.23;94.87;100915.27;124516;1102;104185;-83
2023/01/15 12:21:04;;;;;;;15.18;6.60;;;;;;;0.21;94.89;100916.83;124605;1105;104182;-82